createdAt,value
2022-09-25T00:01:11.879Z,44.43
2022-09-25T00:03:39.892Z,46.47
2022-09-25T00:06:20.311Z,47.10
2022-09-25T00:08:48.015Z,40.57
2022-09-25T00:11:27.786Z,47.87
2022-09-25T00:13:55.945Z,42.00
2022-09-25T00:16:26.898Z,36.00
2022-09-25T00:19:12.296Z,41.67
2022-09-25T00:21:39.246Z,39.37
2022-09-25T00:24:09.620Z,35.13
2022-09-25T00:26:41.138Z,36.43
2022-09-25T00:29:15.234Z,30.33
2022-09-25T00:31:42.182Z,35.77
2022-09-25T00:34:10.327Z,31.40
2022-09-25T00:36:37.281Z,31.10
2022-09-25T00:39:04.517Z,33.87
2022-09-25T00:41:32.127Z,34.43
2022-09-25T00:44:02.565Z,36.27
2022-09-25T00:46:36.969Z,33.57
2022-09-25T00:49:11.742Z,31.67
2022-09-25T00:51:58.151Z,32.20
2022-09-25T00:54:40.311Z,31.77
2022-09-25T00:57:10.863Z,27.47
2022-09-25T00:59:44.199Z,29.37
2022-09-25T01:02:18.965Z,30.47
2022-09-25T01:04:47.679Z,29.63
2022-09-25T01:07:15.868Z,28.93
2022-09-25T01:09:43.331Z,30.07
2022-09-25T01:12:10.256Z,29.10
2022-09-25T01:14:38.462Z,30.97
2022-09-25T01:17:27.707Z,30.90
2022-09-25T01:20:42.054Z,27.90
2022-09-25T01:23:39.671Z,28.93
2022-09-25T01:26:37.094Z,27.67
2022-09-25T01:29:28.195Z,28.07
2022-09-25T01:32:15.758Z,24.03
2022-09-25T01:35:09.010Z,27.07
2022-09-25T01:38:06.071Z,28.13
2022-09-25T01:40:46.691Z,53.60
2022-09-25T01:43:36.340Z,103.40
2022-09-25T01:46:35.127Z,139.90
2022-09-25T01:49:29.376Z,108.73
2022-09-25T01:51:58.866Z,104.97
2022-09-25T01:54:44.518Z,101.20
2022-09-25T01:57:20.007Z,125.67
2022-09-25T02:00:09.515Z,137.60
2022-09-25T02:03:26.036Z,125.47
2022-09-25T02:05:59.293Z,105.97
2022-09-25T02:08:55.133Z,115.00
2022-09-25T02:11:24.617Z,97.17
2022-09-25T02:13:58.866Z,102.33
2022-09-25T02:16:43.772Z,94.80
2022-09-25T02:19:35.310Z,83.97
2022-09-25T02:22:09.429Z,78.67
2022-09-25T02:25:15.725Z,81.00
2022-09-25T02:27:43.446Z,67.80
2022-09-25T02:30:11.698Z,71.97
2022-09-25T02:32:38.708Z,65.17
2022-09-25T02:35:06.272Z,63.20
2022-09-25T02:37:33.130Z,68.20
2022-09-25T02:40:02.258Z,72.40
2022-09-25T02:43:01.683Z,83.27
2022-09-25T02:45:52.471Z,77.70
2022-09-25T02:48:51.641Z,59.33
2022-09-25T02:51:55.599Z,52.30
2022-09-25T02:54:38.702Z,50.80
2022-09-25T02:57:09.515Z,48.33
2022-09-25T02:59:42.812Z,49.57
2022-09-25T03:02:12.273Z,43.17
2022-09-25T03:04:41.354Z,38.63
2022-09-25T03:07:08.461Z,38.00
2022-09-25T03:09:38.676Z,32.83
2022-09-25T03:12:05.984Z,33.20
2022-09-25T03:14:33.028Z,31.97
2022-09-25T03:17:04.770Z,28.50
2022-09-25T03:19:31.947Z,32.80
2022-09-25T03:21:58.829Z,33.80
2022-09-25T03:24:26.014Z,45.07
2022-09-25T03:26:54.037Z,48.60
2022-09-25T03:29:21.435Z,51.33
2022-09-25T03:31:48.709Z,57.10
2022-09-25T03:34:18.854Z,60.43
2022-09-25T03:36:47.622Z,58.23
2022-09-25T03:39:20.307Z,63.50
2022-09-25T03:41:48.350Z,61.30
2022-09-25T03:44:15.403Z,66.40
2022-09-25T03:46:42.337Z,71.20
2022-09-25T03:49:10.667Z,70.77
2022-09-25T03:51:38.944Z,71.23
2022-09-25T03:54:06.252Z,69.33
2022-09-25T03:56:33.495Z,62.73
2022-09-25T03:59:00.495Z,58.43
2022-09-25T04:01:28.811Z,51.87
2022-09-25T04:03:55.989Z,51.70
2022-09-25T04:06:26.144Z,46.73
2022-09-25T04:08:54.127Z,41.70
2022-09-25T04:11:24.523Z,45.57
2022-09-25T04:13:52.706Z,42.10
2022-09-25T04:16:21.187Z,39.93
2022-09-25T04:18:48.310Z,44.67
2022-09-25T04:21:16.307Z,41.40
2022-09-25T04:24:03.329Z,42.20
2022-09-25T04:26:31.507Z,39.90
2022-09-25T04:29:01.617Z,45.60
2022-09-25T04:31:29.821Z,43.07
2022-09-25T04:33:56.892Z,45.60
2022-09-25T04:36:23.846Z,40.37
2022-09-25T04:38:50.727Z,43.00
2022-09-25T04:41:20.006Z,37.70
2022-09-25T04:43:47.728Z,40.47
2022-09-25T04:46:20.857Z,39.53
2022-09-25T04:48:49.240Z,42.83
2022-09-25T04:51:16.192Z,32.87
2022-09-25T04:53:43.177Z,35.77
2022-09-25T04:56:15.485Z,35.37
2022-09-25T04:58:50.454Z,37.83
2022-09-25T05:01:20.364Z,42.00
2022-09-25T05:03:53.892Z,37.57
2022-09-25T05:06:21.513Z,39.27
2022-09-25T05:08:53.151Z,36.90
2022-09-25T05:11:20.032Z,39.70
2022-09-25T05:13:51.574Z,41.33
2022-09-25T05:16:19.589Z,48.57
2022-09-25T05:18:46.544Z,46.20
2022-09-25T05:21:13.656Z,42.50
2022-09-25T05:23:40.599Z,36.00
2022-09-25T05:26:07.535Z,37.23
2022-09-25T05:28:34.482Z,38.40
2022-09-25T05:31:03.749Z,40.20
2022-09-25T05:33:32.975Z,36.33
2022-09-25T05:36:05.679Z,34.63
2022-09-25T05:38:34.630Z,33.57
2022-09-25T05:41:04.957Z,32.93
2022-09-25T05:43:32.856Z,34.03
2022-09-25T05:46:00.400Z,30.23
2022-09-25T05:48:27.404Z,31.50
2022-09-25T05:50:56.537Z,35.67
2022-09-25T05:53:24.686Z,32.63
2022-09-25T05:55:53.904Z,28.33
2022-09-25T05:58:21.969Z,32.23
2022-09-25T06:00:49.100Z,35.47
2022-09-25T06:03:16.557Z,38.70
2022-09-25T06:05:46.172Z,38.10
2022-09-25T06:08:14.311Z,34.43
2022-09-25T06:10:42.111Z,37.63
2022-09-25T06:13:09.246Z,38.60
2022-09-25T06:15:39.406Z,34.57
2022-09-25T06:18:08.785Z,33.97
2022-09-25T06:20:36.437Z,32.83
2022-09-25T06:23:03.557Z,30.43
2022-09-25T06:25:36.596Z,36.73
2022-09-25T06:28:04.117Z,36.20
2022-09-25T06:30:34.826Z,32.33
2022-09-25T06:33:10.783Z,34.40
2022-09-25T06:35:48.375Z,33.30
2022-09-25T06:38:17.041Z,33.67
2022-09-25T06:40:44.050Z,33.80
2022-09-25T06:43:13.676Z,35.40
2022-09-25T06:45:41.419Z,32.10
2022-09-25T06:48:13.817Z,34.27
2022-09-25T06:50:55.379Z,35.20
2022-09-25T06:53:24.338Z,28.83
2022-09-25T06:55:52.044Z,31.30
2022-09-25T06:58:22.732Z,31.73
2022-09-25T07:00:51.954Z,33.27
2022-09-25T07:03:38.189Z,31.27
2022-09-25T07:06:07.768Z,36.08
2022-09-25T07:08:35.161Z,33.43
2022-09-25T07:11:02.401Z,30.07
2022-09-25T07:13:33.506Z,29.83
2022-09-25T07:16:11.756Z,36.77
2022-09-25T07:18:38.750Z,35.10
2022-09-25T07:21:15.356Z,31.63
2022-09-25T07:23:42.938Z,32.97
2022-09-25T07:26:15.994Z,29.88
2022-09-25T07:28:44.378Z,29.92
2022-09-25T07:31:33.595Z,28.80
2022-09-25T07:34:05.954Z,30.88
2022-09-25T07:36:33.946Z,30.20
2022-09-25T07:39:00.993Z,34.08
2022-09-25T07:41:27.904Z,30.30
2022-09-25T07:44:28.101Z,32.33
2022-09-25T07:46:44.871Z,34.08
2022-09-25T07:49:12.239Z,33.10
2022-09-25T07:51:39.497Z,31.60
2022-09-25T07:54:06.623Z,32.05
2022-09-25T07:56:34.667Z,36.97
2022-09-25T07:59:01.716Z,27.02
2022-09-25T08:01:28.813Z,29.67
2022-09-25T08:03:55.810Z,27.23
2022-09-25T08:06:22.723Z,34.33
2022-09-25T08:08:49.666Z,34.97
2022-09-25T08:11:18.270Z,29.42
2022-09-25T08:13:46.635Z,30.20
2022-09-25T08:16:18.666Z,31.35
2022-09-25T08:18:47.266Z,31.35
2022-09-25T08:21:18.043Z,32.17
2022-09-25T08:23:52.239Z,34.47
2022-09-25T08:26:21.537Z,28.13
2022-09-25T08:28:48.710Z,34.83
2022-09-25T08:31:15.719Z,32.70
2022-09-25T08:33:47.342Z,32.50
2022-09-25T08:36:14.715Z,30.02
2022-09-25T08:38:42.081Z,30.73
2022-09-25T08:41:23.699Z,28.65
2022-09-25T08:44:22.978Z,35.25
2022-09-25T08:47:33.003Z,31.20
2022-09-25T08:50:20.775Z,30.85
2022-09-25T08:52:53.759Z,31.05
2022-09-25T08:55:51.294Z,28.25
2022-09-25T08:58:25.401Z,34.70
2022-09-25T09:01:01.242Z,28.10
2022-09-25T09:03:31.806Z,28.30
2022-09-25T09:06:07.428Z,27.67
2022-09-25T09:08:39.379Z,30.85
2022-09-25T09:11:17.758Z,27.13
2022-09-25T09:13:56.187Z,25.38
2022-09-25T09:16:41.780Z,27.45
2022-09-25T09:19:11.848Z,28.17
2022-09-25T09:21:49.144Z,26.58
2022-09-25T09:24:56.106Z,25.50
2022-09-25T09:27:43.608Z,27.88
2022-09-25T09:30:22.352Z,24.55
2022-09-25T09:33:38.633Z,29.85
2022-09-25T09:36:16.977Z,27.08
2022-09-25T09:39:11.451Z,29.23
2022-09-25T09:41:50.279Z,28.02
2022-09-25T09:44:51.072Z,27.23
2022-09-25T09:48:02.175Z,24.35
2022-09-25T09:50:54.597Z,25.77
2022-09-25T09:53:28.919Z,23.42
2022-09-25T09:56:07.367Z,21.33
2022-09-25T09:58:54.490Z,25.08
2022-09-25T10:01:40.751Z,24.52
2022-09-25T10:04:17.460Z,23.10
2022-09-25T10:06:55.402Z,18.33
2022-09-25T10:09:25.042Z,16.60
2022-09-25T10:12:05.838Z,18.00
2022-09-25T10:14:39.891Z,20.02
2022-09-25T10:17:11.513Z,18.73
2022-09-25T10:19:57.696Z,18.33
2022-09-25T10:22:37.287Z,19.80
2022-09-25T10:25:06.622Z,16.45
2022-09-25T10:27:49.062Z,16.45
2022-09-25T10:30:22.001Z,17.83
2022-09-25T10:33:00.901Z,16.95
2022-09-25T10:35:39.775Z,18.75
2022-09-25T10:38:34.652Z,17.63
2022-09-25T10:41:13.133Z,14.35
2022-09-25T10:44:02.297Z,13.45
2022-09-25T10:46:54.272Z,12.65
2022-09-25T10:49:45.864Z,14.65
2022-09-25T10:52:21.285Z,12.25
2022-09-25T10:54:48.238Z,11.30
2022-09-25T10:57:35.370Z,8.75
2022-09-25T11:00:19.445Z,9.80
2022-09-25T11:02:48.369Z,11.02
2022-09-25T11:05:27.513Z,12.10
2022-09-25T11:08:01.049Z,11.90
2022-09-25T11:10:48.352Z,13.43
2022-09-25T11:13:27.973Z,12.32
2022-09-25T11:16:01.596Z,14.57
2022-09-25T11:18:37.478Z,10.43
2022-09-25T11:21:09.057Z,9.90
2022-09-25T11:24:06.313Z,9.93
2022-09-25T11:26:42.227Z,10.63
2022-09-25T11:29:25.639Z,10.30
2022-09-25T11:32:08.390Z,9.73
2022-09-25T11:35:06.417Z,12.00
2022-09-25T11:37:46.174Z,13.23
2022-09-25T11:40:59.088Z,11.32
2022-09-25T11:43:57.689Z,9.98
2022-09-25T11:46:57.198Z,11.45
2022-09-25T11:49:32.165Z,11.38
2022-09-25T11:52:41.039Z,14.32
2022-09-25T11:55:46.679Z,12.88
2022-09-25T11:58:49.573Z,12.68
2022-09-25T12:01:36.797Z,7.75
2022-09-25T12:04:12.877Z,11.75
2022-09-25T12:07:15.095Z,7.38
2022-09-25T12:10:06.669Z,7.13
2022-09-25T12:12:41.669Z,7.38
2022-09-25T12:15:23.532Z,7.22
2022-09-25T12:18:13.387Z,6.18
2022-09-25T12:20:58.200Z,11.07
2022-09-25T12:23:33.603Z,7.43
2022-09-25T12:26:38.009Z,9.98
2022-09-25T12:29:31.598Z,7.43
2022-09-25T12:32:25.261Z,10.60
2022-09-25T12:35:34.365Z,7.65
2022-09-25T12:38:30.536Z,7.35
2022-09-25T12:41:51.916Z,8.63
2022-09-25T12:44:27.672Z,9.10
2022-09-25T12:47:02.012Z,9.50
2022-09-25T12:49:49.435Z,10.30
2022-09-25T12:52:42.240Z,10.43
2022-09-25T12:55:39.745Z,12.85
2022-09-25T12:58:25.165Z,9.02
2022-09-25T13:01:02.451Z,8.95
2022-09-25T13:03:56.013Z,9.20
2022-09-25T13:06:38.180Z,7.95
2022-09-25T13:09:45.396Z,9.20
2022-09-25T13:12:36.036Z,10.30
2022-09-25T13:15:23.578Z,8.90
2022-09-25T13:17:51.012Z,8.55
2022-09-25T13:20:26.678Z,12.05
2022-09-25T13:23:12.872Z,12.52
2022-09-25T13:25:52.093Z,8.95
2022-09-25T13:28:26.361Z,10.30
2022-09-25T13:31:12.879Z,8.88
2022-09-25T13:33:51.536Z,9.25
2022-09-25T13:36:25.262Z,8.18
2022-09-25T13:39:25.326Z,9.90
2022-09-25T13:42:03.595Z,10.68
2022-09-25T13:44:52.507Z,8.57
2022-09-25T13:47:23.674Z,9.13
2022-09-25T13:50:07.669Z,8.90
2022-09-25T13:52:40.631Z,9.32
2022-09-25T13:55:13.541Z,8.93
2022-09-25T13:57:58.597Z,8.85
2022-09-25T14:00:55.419Z,10.52
2022-09-25T14:03:48.205Z,11.40
2022-09-25T14:06:25.589Z,9.57
2022-09-25T14:08:57.197Z,10.73
2022-09-25T14:11:31.620Z,10.48
2022-09-25T14:14:01.879Z,8.32
2022-09-25T14:16:38.003Z,7.80
2022-09-25T14:19:05.841Z,8.95
2022-09-25T14:21:35.905Z,10.57
2022-09-25T14:24:23.479Z,8.70
2022-09-25T14:26:53.680Z,11.20
2022-09-25T14:29:37.604Z,9.40
2022-09-25T14:32:54.543Z,12.18
2022-09-25T14:35:46.803Z,8.60
2022-09-25T14:38:42.894Z,8.13
2022-09-25T14:41:56.049Z,9.95
2022-09-25T14:45:03.978Z,15.68
2022-09-25T14:47:37.409Z,14.98
2022-09-25T14:50:05.923Z,14.90
2022-09-25T14:52:36.352Z,12.63
2022-09-25T14:55:04.479Z,18.38
2022-09-25T14:57:35.818Z,11.85
2022-09-25T15:00:08.046Z,10.00
2022-09-25T15:02:45.057Z,11.05
2022-09-25T15:05:27.245Z,11.05
2022-09-25T15:07:58.949Z,10.95
2022-09-25T15:10:38.921Z,9.43
2022-09-25T15:13:20.298Z,10.50
2022-09-25T15:16:15.881Z,12.57
2022-09-25T15:18:51.193Z,10.25
2022-09-25T15:21:29.370Z,10.18
2022-09-25T15:24:02.259Z,9.75
2022-09-25T15:26:31.631Z,8.75
2022-09-25T15:28:58.848Z,10.63
2022-09-25T15:31:26.119Z,11.00
2022-09-25T15:34:12.071Z,10.13
2022-09-25T15:36:38.987Z,10.43
2022-09-25T15:39:22.879Z,16.10
2022-09-25T15:41:49.973Z,22.60
2022-09-25T15:44:25.454Z,21.80
2022-09-25T15:46:59.124Z,25.63
2022-09-25T15:49:40.607Z,27.33
2022-09-25T15:52:22.729Z,19.83
2022-09-25T15:54:49.734Z,18.42
2022-09-25T15:57:26.988Z,15.82
2022-09-25T16:00:13.066Z,15.95
2022-09-25T16:03:14.603Z,18.13
2022-09-25T16:05:48.063Z,19.25
2022-09-25T16:08:17.962Z,21.63
2022-09-25T16:10:49.880Z,18.50
2022-09-25T16:13:21.797Z,16.95
2022-09-25T16:15:51.863Z,18.20
2022-09-25T16:18:26.407Z,22.20
2022-09-25T16:21:15.309Z,20.17
2022-09-25T16:23:43.228Z,21.00
2022-09-25T16:26:22.173Z,24.38
2022-09-25T16:29:18.903Z,28.10
2022-09-25T16:31:46.911Z,26.90
2022-09-25T16:34:34.860Z,26.08
2022-09-25T16:37:04.476Z,22.58
2022-09-25T16:39:39.270Z,28.83
2022-09-25T16:42:26.649Z,29.85
2022-09-25T16:45:14.952Z,34.92
2022-09-25T16:47:46.845Z,27.92
2022-09-25T16:50:16.627Z,32.35
2022-09-25T16:52:44.581Z,32.13
2022-09-25T16:55:25.726Z,28.92
2022-09-25T16:57:54.091Z,27.00
2022-09-25T17:00:26.645Z,32.05
2022-09-25T17:02:54.530Z,36.13
2022-09-25T17:05:38.527Z,34.47
2022-09-25T17:08:32.572Z,39.17
2022-09-25T17:10:59.462Z,44.13
2022-09-25T17:13:30.503Z,42.67
2022-09-25T17:15:57.641Z,47.03
2022-09-25T17:18:24.583Z,44.17
2022-09-25T17:20:54.317Z,45.67
2022-09-25T17:23:23.858Z,44.88
2022-09-25T17:25:52.674Z,54.67
2022-09-25T17:28:19.573Z,58.95
2022-09-25T17:30:46.817Z,62.83
2022-09-25T17:33:22.532Z,72.13
2022-09-25T17:35:59.828Z,88.55
2022-09-25T17:38:27.307Z,80.68
2022-09-25T17:41:00.476Z,83.57
2022-09-25T17:43:30.223Z,71.35
2022-09-25T17:45:59.680Z,66.95
2022-09-25T17:48:30.706Z,67.55
2022-09-25T17:51:10.997Z,66.18
2022-09-25T17:53:38.204Z,60.67
2022-09-25T17:56:05.259Z,58.60
2022-09-25T17:58:32.266Z,51.15
2022-09-25T18:01:01.623Z,55.60
2022-09-25T18:03:30.877Z,51.78
2022-09-25T18:05:58.343Z,43.58
2022-09-25T18:08:25.310Z,42.15
2022-09-25T18:10:54.931Z,40.22
2022-09-25T18:13:22.885Z,39.92
2022-09-25T18:15:55.220Z,36.17
2022-09-25T18:18:23.095Z,37.90
2022-09-25T18:21:09.691Z,38.65
2022-09-25T18:23:38.607Z,40.65
2022-09-25T18:26:08.625Z,38.67
2022-09-25T18:28:35.595Z,41.85
2022-09-25T18:31:02.617Z,44.38
2022-09-25T18:33:29.635Z,48.47
2022-09-25T18:35:56.593Z,53.60
2022-09-25T18:38:23.558Z,56.22
2022-09-25T18:40:50.522Z,51.95
2022-09-25T18:43:17.642Z,50.63
2022-09-25T18:45:51.232Z,50.92
2022-09-25T18:48:18.322Z,51.00
2022-09-25T18:50:49.804Z,53.75
2022-09-25T18:53:17.703Z,50.25
2022-09-25T18:55:44.830Z,47.88
2022-09-25T18:58:12.694Z,46.92
2022-09-25T19:00:40.365Z,46.42
2022-09-25T19:03:07.444Z,44.63
2022-09-25T19:05:34.476Z,47.47
2022-09-25T19:08:03.540Z,48.63
2022-09-25T19:10:34.404Z,52.95
2022-09-25T19:13:01.512Z,47.85
2022-09-25T19:15:29.365Z,48.70
2022-09-25T19:17:57.784Z,44.97
2022-09-25T19:20:25.217Z,43.25
2022-09-25T19:22:52.236Z,44.08
2022-09-25T19:25:22.499Z,45.05
2022-09-25T19:27:49.770Z,39.55
2022-09-25T19:30:16.839Z,38.08
2022-09-25T19:32:43.729Z,37.47
2022-09-25T19:35:11.409Z,43.15
2022-09-25T19:37:41.341Z,43.10
2022-09-25T19:40:28.632Z,37.40
2022-09-25T19:42:56.010Z,40.08
2022-09-25T19:45:22.917Z,43.58
2022-09-25T19:47:49.784Z,40.95
2022-09-25T19:50:18.866Z,41.35
2022-09-25T19:52:50.258Z,38.33
2022-09-25T19:55:18.046Z,39.15
2022-09-25T19:57:44.957Z,40.17
2022-09-25T20:00:12.464Z,42.63
2022-09-25T20:02:39.476Z,48.63
2022-09-25T20:05:07.101Z,50.53
2022-09-25T20:07:33.991Z,52.60
2022-09-25T20:10:00.882Z,54.88
2022-09-25T20:12:28.043Z,50.78
2022-09-25T20:14:54.926Z,52.67
2022-09-25T20:17:21.935Z,49.47
2022-09-25T20:19:48.813Z,51.33
2022-09-25T20:22:16.347Z,54.42
2022-09-25T20:24:43.297Z,52.50
2022-09-25T20:27:10.160Z,47.63
2022-09-25T20:29:37.061Z,48.72
2022-09-25T20:32:03.944Z,49.35
2022-09-25T20:34:30.862Z,57.70
2022-09-25T20:36:57.739Z,52.00
2022-09-25T20:39:24.692Z,47.17
2022-09-25T20:41:51.678Z,49.47
2022-09-25T20:44:18.639Z,43.42
2022-09-25T20:46:45.595Z,52.88
2022-09-25T20:49:13.220Z,49.00
2022-09-25T20:51:41.154Z,42.25
2022-09-25T20:54:10.181Z,46.55
2022-09-25T20:56:38.993Z,49.10
2022-09-25T20:59:06.062Z,49.55
2022-09-25T21:01:36.791Z,51.08
2022-09-25T21:04:08.048Z,51.53
2022-09-25T21:06:37.779Z,49.63
2022-09-25T21:09:08.833Z,51.17
2022-09-25T21:11:35.975Z,49.72
2022-09-25T21:14:03.649Z,49.42
2022-09-25T21:16:32.955Z,52.60
2022-09-25T21:19:04.120Z,53.35
2022-09-25T21:21:33.948Z,50.85
2022-09-25T21:24:02.403Z,54.15
2022-09-25T21:26:31.249Z,67.18
2022-09-25T21:29:01.371Z,71.95
2022-09-25T21:31:38.530Z,78.57
2022-09-25T21:34:09.908Z,84.28
2022-09-25T21:36:38.978Z,94.10
2022-09-25T21:39:07.042Z,76.53
2022-09-25T21:41:35.328Z,75.97
2022-09-25T21:44:06.743Z,77.45
2022-09-25T21:46:34.948Z,71.53
2022-09-25T21:49:05.964Z,66.47
2022-09-25T21:51:38.123Z,61.65
2022-09-25T21:54:07.601Z,54.83
2022-09-25T21:56:34.760Z,56.30
2022-09-25T21:59:08.282Z,47.63
2022-09-25T22:01:37.440Z,52.80
2022-09-25T22:04:06.108Z,48.33
2022-09-25T22:06:37.023Z,48.85
2022-09-25T22:09:09.209Z,45.80
2022-09-25T22:11:37.347Z,41.90
2022-09-25T22:14:04.830Z,44.45
2022-09-25T22:16:35.486Z,45.95
2022-09-25T22:19:12.115Z,41.83
2022-09-25T22:21:40.702Z,40.17
2022-09-25T22:24:09.225Z,44.85
2022-09-25T22:26:41.044Z,42.17
2022-09-25T22:29:08.632Z,42.22
2022-09-25T22:31:38.577Z,39.65
2022-09-25T22:34:12.456Z,40.67
2022-09-25T22:36:39.371Z,41.67
2022-09-25T22:39:06.881Z,44.53
2022-09-25T22:41:33.877Z,36.00
2022-09-25T22:44:01.539Z,42.00
2022-09-25T22:46:28.983Z,40.50
2022-09-25T22:48:56.353Z,39.92
2022-09-25T22:51:25.567Z,38.92
2022-09-25T22:53:53.987Z,42.03
2022-09-25T22:56:22.229Z,43.97
2022-09-25T22:58:54.062Z,38.75
2022-09-25T23:01:32.549Z,44.00
2022-09-25T23:04:03.518Z,41.65
2022-09-25T23:06:33.169Z,40.50
2022-09-25T23:09:04.719Z,39.80
2022-09-25T23:11:32.156Z,38.55
2022-09-25T23:14:06.726Z,40.40
2022-09-25T23:16:34.481Z,38.72
2022-09-25T23:19:02.261Z,38.45
2022-09-25T23:21:30.913Z,41.08
2022-09-25T23:24:08.189Z,39.72
2022-09-25T23:26:35.194Z,39.08
2022-09-25T23:29:02.687Z,40.10
2022-09-25T23:31:31.351Z,42.65
2022-09-25T23:34:02.325Z,42.03
2022-09-25T23:36:30.340Z,37.13
2022-09-25T23:39:00.601Z,38.25
2022-09-25T23:41:31.782Z,35.78
2022-09-25T23:44:00.317Z,41.33
2022-09-25T23:46:31.258Z,36.97
2022-09-25T23:48:59.127Z,43.60
2022-09-25T23:51:26.236Z,45.25
2022-09-25T23:53:55.033Z,41.25
2022-09-25T23:56:26.026Z,41.15
2022-09-25T23:58:53.640Z,39.33
